sensor_id;sensor_type;location;lat;lon;timestamp;temperature;humidity
33139;DHT22;19501;50.948;5.316;2022-08-19T00:01:52;18.80;99.90
33139;DHT22;19501;50.948;5.316;2022-08-19T00:04:20;19.00;99.90
33139;DHT22;19501;50.948;5.316;2022-08-19T00:06:47;18.90;99.90
33139;DHT22;19501;50.948;5.316;2022-08-19T00:09:17;18.80;99.90
33139;DHT22;19501;50.948;5.316;2022-08-19T00:11:44;18.90;99.90
33139;DHT22;19501;50.948;5.316;2022-08-19T00:14:11;18.90;99.90
33139;DHT22;19501;50.948;5.316;2022-08-19T00:16:38;19.10;99.90
33139;DHT22;19501;50.948;5.316;2022-08-19T00:19:05;19.30;99.90
33139;DHT22;19501;50.948;5.316;2022-08-19T00:21:30;19.30;99.90
33139;DHT22;19501;50.948;5.316;2022-08-19T00:23:57;19.40;99.90
33139;DHT22;19501;50.948;5.316;2022-08-19T00:26:24;19.50;99.90
33139;DHT22;19501;50.948;5.316;2022-08-19T00:28:50;19.50;99.90
33139;DHT22;19501;50.948;5.316;2022-08-19T00:31:16;19.30;99.90
33139;DHT22;19501;50.948;5.316;2022-08-19T00:33:42;19.20;99.90
33139;DHT22;19501;50.948;5.316;2022-08-19T00:36:09;19.10;99.90
33139;DHT22;19501;50.948;5.316;2022-08-19T00:38:37;19.00;99.90
33139;DHT22;19501;50.948;5.316;2022-08-19T00:41:05;19.10;99.90
33139;DHT22;19501;50.948;5.316;2022-08-19T00:43:31;19.10;99.90
33139;DHT22;19501;50.948;5.316;2022-08-19T00:45:56;19.00;99.90
33139;DHT22;19501;50.948;5.316;2022-08-19T00:48:22;18.90;99.90
33139;DHT22;19501;50.948;5.316;2022-08-19T00:50:50;18.80;99.90
33139;DHT22;19501;50.948;5.316;2022-08-19T00:53:21;18.70;99.90
33139;DHT22;19501;50.948;5.316;2022-08-19T00:55:50;18.60;99.90
33139;DHT22;19501;50.948;5.316;2022-08-19T00:58:18;18.60;99.90
33139;DHT22;19501;50.948;5.316;2022-08-19T01:00:46;18.50;99.90
33139;DHT22;19501;50.948;5.316;2022-08-19T01:03:14;18.60;99.90
33139;DHT22;19501;50.948;5.316;2022-08-19T01:05:43;18.70;99.90
33139;DHT22;19501;50.948;5.316;2022-08-19T01:08:09;18.70;99.90
33139;DHT22;19501;50.948;5.316;2022-08-19T01:10:51;18.60;99.90
33139;DHT22;19501;50.948;5.316;2022-08-19T01:13:20;18.50;99.90
33139;DHT22;19501;50.948;5.316;2022-08-19T01:15:51;18.60;99.90
33139;DHT22;19501;50.948;5.316;2022-08-19T01:18:19;18.70;99.90
33139;DHT22;19501;50.948;5.316;2022-08-19T01:20:46;18.80;99.90
33139;DHT22;19501;50.948;5.316;2022-08-19T01:23:12;18.50;99.90
33139;DHT22;19501;50.948;5.316;2022-08-19T01:25:45;18.50;99.90
33139;DHT22;19501;50.948;5.316;2022-08-19T01:28:22;18.60;99.90
33139;DHT22;19501;50.948;5.316;2022-08-19T01:30:48;18.70;99.90
33139;DHT22;19501;50.948;5.316;2022-08-19T01:33:14;18.70;99.90
33139;DHT22;19501;50.948;5.316;2022-08-19T01:35:40;18.80;99.90
33139;DHT22;19501;50.948;5.316;2022-08-19T01:38:19;18.80;99.90
33139;DHT22;19501;50.948;5.316;2022-08-19T01:40:45;18.80;99.90
33139;DHT22;19501;50.948;5.316;2022-08-19T01:43:10;18.70;99.90
33139;DHT22;19501;50.948;5.316;2022-08-19T01:45:36;18.70;99.90
33139;DHT22;19501;50.948;5.316;2022-08-19T01:48:06;18.60;99.90
33139;DHT22;19501;50.948;5.316;2022-08-19T01:50:33;18.60;99.90
33139;DHT22;19501;50.948;5.316;2022-08-19T01:53:00;18.60;99.90
33139;DHT22;19501;50.948;5.316;2022-08-19T01:55:25;18.70;99.90
33139;DHT22;19501;50.948;5.316;2022-08-19T01:57:55;18.80;99.90
33139;DHT22;19501;50.948;5.316;2022-08-19T02:00:23;18.80;99.90
33139;DHT22;19501;50.948;5.316;2022-08-19T02:02:52;18.80;99.90
33139;DHT22;19501;50.948;5.316;2022-08-19T02:05:18;18.80;99.90
33139;DHT22;19501;50.948;5.316;2022-08-19T02:07:47;18.80;99.90
33139;DHT22;19501;50.948;5.316;2022-08-19T02:10:20;18.80;99.90
33139;DHT22;19501;50.948;5.316;2022-08-19T02:12:47;18.80;99.90
33139;DHT22;19501;50.948;5.316;2022-08-19T02:15:17;18.90;99.90
33139;DHT22;19501;50.948;5.316;2022-08-19T02:17:44;18.80;99.90
33139;DHT22;19501;50.948;5.316;2022-08-19T02:20:10;18.90;99.90
33139;DHT22;19501;50.948;5.316;2022-08-19T02:22:36;18.80;99.90
33139;DHT22;19501;50.948;5.316;2022-08-19T02:25:02;18.90;99.90
33139;DHT22;19501;50.948;5.316;2022-08-19T02:27:29;19.00;99.90
33139;DHT22;19501;50.948;5.316;2022-08-19T02:29:55;18.90;99.90
33139;DHT22;19501;50.948;5.316;2022-08-19T02:32:21;18.80;99.90
33139;DHT22;19501;50.948;5.316;2022-08-19T02:34:49;18.90;99.90
33139;DHT22;19501;50.948;5.316;2022-08-19T02:37:14;18.90;99.90
33139;DHT22;19501;50.948;5.316;2022-08-19T02:39:59;18.80;99.90
33139;DHT22;19501;50.948;5.316;2022-08-19T02:42:25;18.60;99.90
33139;DHT22;19501;50.948;5.316;2022-08-19T02:44:51;18.40;99.90
33139;DHT22;19501;50.948;5.316;2022-08-19T02:47:18;18.50;99.90
33139;DHT22;19501;50.948;5.316;2022-08-19T02:49:45;18.40;99.90
33139;DHT22;19501;50.948;5.316;2022-08-19T02:52:11;18.30;99.90
33139;DHT22;19501;50.948;5.316;2022-08-19T02:54:37;18.30;99.90
33139;DHT22;19501;50.948;5.316;2022-08-19T02:57:04;18.20;99.90
33139;DHT22;19501;50.948;5.316;2022-08-19T02:59:31;18.20;99.90
33139;DHT22;19501;50.948;5.316;2022-08-19T03:02:03;18.20;99.90
33139;DHT22;19501;50.948;5.316;2022-08-19T03:04:31;18.10;99.90
33139;DHT22;19501;50.948;5.316;2022-08-19T03:06:57;18.10;99.90
33139;DHT22;19501;50.948;5.316;2022-08-19T03:09:23;18.10;99.90
33139;DHT22;19501;50.948;5.316;2022-08-19T03:11:49;18.10;99.90
33139;DHT22;19501;50.948;5.316;2022-08-19T03:14:15;18.10;99.90
33139;DHT22;19501;50.948;5.316;2022-08-19T03:16:51;18.00;99.90
33139;DHT22;19501;50.948;5.316;2022-08-19T03:19:19;18.10;99.90
33139;DHT22;19501;50.948;5.316;2022-08-19T03:21:48;18.20;99.90
33139;DHT22;19501;50.948;5.316;2022-08-19T03:24:15;18.30;99.90
33139;DHT22;19501;50.948;5.316;2022-08-19T03:26:47;18.40;99.90
33139;DHT22;19501;50.948;5.316;2022-08-19T03:29:13;18.20;99.90
33139;DHT22;19501;50.948;5.316;2022-08-19T03:31:41;18.20;99.90
33139;DHT22;19501;50.948;5.316;2022-08-19T03:34:09;18.10;99.90
33139;DHT22;19501;50.948;5.316;2022-08-19T03:36:37;18.20;99.90
33139;DHT22;19501;50.948;5.316;2022-08-19T03:39:03;18.30;99.90
33139;DHT22;19501;50.948;5.316;2022-08-19T03:41:37;18.30;99.90
33139;DHT22;19501;50.948;5.316;2022-08-19T03:44:06;18.40;99.90
33139;DHT22;19501;50.948;5.316;2022-08-19T03:46:33;18.40;99.90
33139;DHT22;19501;50.948;5.316;2022-08-19T03:49:00;18.30;99.90
33139;DHT22;19501;50.948;5.316;2022-08-19T03:51:32;18.20;99.90
33139;DHT22;19501;50.948;5.316;2022-08-19T03:54:00;18.10;99.90
33139;DHT22;19501;50.948;5.316;2022-08-19T03:56:27;18.00;99.90
33139;DHT22;19501;50.948;5.316;2022-08-19T03:58:54;18.10;99.90
33139;DHT22;19501;50.948;5.316;2022-08-19T04:01:25;18.10;99.90
33139;DHT22;19501;50.948;5.316;2022-08-19T04:03:51;18.00;99.90
33139;DHT22;19501;50.948;5.316;2022-08-19T04:09:10;17.90;99.90
33139;DHT22;19501;50.948;5.316;2022-08-19T04:11:48;17.90;99.90
33139;DHT22;19501;50.948;5.316;2022-08-19T04:14:17;17.90;99.90
33139;DHT22;19501;50.948;5.316;2022-08-19T04:16:44;18.00;99.90
33139;DHT22;19501;50.948;5.316;2022-08-19T04:19:11;17.90;99.90
33139;DHT22;19501;50.948;5.316;2022-08-19T04:21:37;17.90;99.90
33139;DHT22;19501;50.948;5.316;2022-08-19T04:24:03;17.70;99.90
33139;DHT22;19501;50.948;5.316;2022-08-19T04:26:33;17.60;99.90
33139;DHT22;19501;50.948;5.316;2022-08-19T04:29:06;17.60;99.90
33139;DHT22;19501;50.948;5.316;2022-08-19T04:31:33;17.50;99.90
33139;DHT22;19501;50.948;5.316;2022-08-19T04:34:05;17.40;99.90
33139;DHT22;19501;50.948;5.316;2022-08-19T04:36:33;17.50;99.90
33139;DHT22;19501;50.948;5.316;2022-08-19T04:39:05;17.50;99.90
33139;DHT22;19501;50.948;5.316;2022-08-19T04:41:33;17.40;99.90
33139;DHT22;19501;50.948;5.316;2022-08-19T04:44:18;17.50;99.90
33139;DHT22;19501;50.948;5.316;2022-08-19T04:46:48;17.40;99.90
33139;DHT22;19501;50.948;5.316;2022-08-19T04:49:18;17.50;99.90
33139;DHT22;19501;50.948;5.316;2022-08-19T04:51:46;17.50;99.90
33139;DHT22;19501;50.948;5.316;2022-08-19T04:54:14;17.50;99.90
33139;DHT22;19501;50.948;5.316;2022-08-19T04:56:40;17.50;99.90
33139;DHT22;19501;50.948;5.316;2022-08-19T04:59:06;17.50;99.90
33139;DHT22;19501;50.948;5.316;2022-08-19T05:01:36;17.50;99.90
33139;DHT22;19501;50.948;5.316;2022-08-19T05:04:04;17.60;99.90
33139;DHT22;19501;50.948;5.316;2022-08-19T05:06:31;17.70;99.90
33139;DHT22;19501;50.948;5.316;2022-08-19T05:09:03;17.80;99.90
33139;DHT22;19501;50.948;5.316;2022-08-19T05:11:33;17.80;99.90
33139;DHT22;19501;50.948;5.316;2022-08-19T05:13:59;17.90;99.90
33139;DHT22;19501;50.948;5.316;2022-08-19T05:16:27;17.90;99.90
33139;DHT22;19501;50.948;5.316;2022-08-19T05:18:54;17.90;99.90
33139;DHT22;19501;50.948;5.316;2022-08-19T05:21:40;17.90;99.90
33139;DHT22;19501;50.948;5.316;2022-08-19T05:24:26;17.80;99.90
33139;DHT22;19501;50.948;5.316;2022-08-19T05:26:53;17.80;99.90
33139;DHT22;19501;50.948;5.316;2022-08-19T05:29:23;17.80;99.90
33139;DHT22;19501;50.948;5.316;2022-08-19T05:31:50;17.90;99.90
33139;DHT22;19501;50.948;5.316;2022-08-19T05:34:18;18.00;99.90
33139;DHT22;19501;50.948;5.316;2022-08-19T05:36:46;18.00;99.90
33139;DHT22;19501;50.948;5.316;2022-08-19T05:39:18;18.10;99.90
33139;DHT22;19501;50.948;5.316;2022-08-19T05:41:53;18.10;99.90
33139;DHT22;19501;50.948;5.316;2022-08-19T05:44:19;18.10;99.90
33139;DHT22;19501;50.948;5.316;2022-08-19T05:46:47;18.10;99.90
33139;DHT22;19501;50.948;5.316;2022-08-19T05:49:14;18.00;99.90
33139;DHT22;19501;50.948;5.316;2022-08-19T05:51:41;18.00;99.90
33139;DHT22;19501;50.948;5.316;2022-08-19T05:54:07;18.00;99.90
33139;DHT22;19501;50.948;5.316;2022-08-19T05:56:34;18.00;99.90
33139;DHT22;19501;50.948;5.316;2022-08-19T05:59:02;17.90;99.90
33139;DHT22;19501;50.948;5.316;2022-08-19T06:01:29;18.00;99.90
33139;DHT22;19501;50.948;5.316;2022-08-19T06:03:55;17.90;99.90
33139;DHT22;19501;50.948;5.316;2022-08-19T06:06:20;17.90;99.90
33139;DHT22;19501;50.948;5.316;2022-08-19T06:08:46;17.80;99.90
33139;DHT22;19501;50.948;5.316;2022-08-19T06:11:40;17.80;99.90
33139;DHT22;19501;50.948;5.316;2022-08-19T06:14:10;17.80;99.90
33139;DHT22;19501;50.948;5.316;2022-08-19T06:16:39;17.80;99.90
33139;DHT22;19501;50.948;5.316;2022-08-19T06:19:08;17.80;99.90
33139;DHT22;19501;50.948;5.316;2022-08-19T06:21:35;17.70;99.90
33139;DHT22;19501;50.948;5.316;2022-08-19T06:24:07;17.70;99.90
33139;DHT22;19501;50.948;5.316;2022-08-19T06:26:39;17.60;99.90
33139;DHT22;19501;50.948;5.316;2022-08-19T06:29:06;17.70;99.90
33139;DHT22;19501;50.948;5.316;2022-08-19T06:31:34;17.70;99.90
33139;DHT22;19501;50.948;5.316;2022-08-19T06:34:01;17.60;99.90
33139;DHT22;19501;50.948;5.316;2022-08-19T06:36:32;17.70;99.90
33139;DHT22;19501;50.948;5.316;2022-08-19T06:39:42;17.80;99.90
33139;DHT22;19501;50.948;5.316;2022-08-19T06:41:51;17.80;99.90
33139;DHT22;19501;50.948;5.316;2022-08-19T06:44:19;17.90;99.90
33139;DHT22;19501;50.948;5.316;2022-08-19T06:46:44;17.90;99.90
33139;DHT22;19501;50.948;5.316;2022-08-19T06:49:11;17.80;99.90
33139;DHT22;19501;50.948;5.316;2022-08-19T06:51:41;18.00;99.90
33139;DHT22;19501;50.948;5.316;2022-08-19T06:54:07;18.00;99.90
33139;DHT22;19501;50.948;5.316;2022-08-19T06:56:34;17.90;99.90
33139;DHT22;19501;50.948;5.316;2022-08-19T06:59:04;17.90;99.90
33139;DHT22;19501;50.948;5.316;2022-08-19T07:01:37;18.00;99.90
33139;DHT22;19501;50.948;5.316;2022-08-19T07:04:08;18.20;99.90
33139;DHT22;19501;50.948;5.316;2022-08-19T07:06:35;18.50;99.90
33139;DHT22;19501;50.948;5.316;2022-08-19T07:09:02;18.60;99.90
33139;DHT22;19501;50.948;5.316;2022-08-19T07:11:27;18.80;99.90
33139;DHT22;19501;50.948;5.316;2022-08-19T07:13:53;18.90;99.90
33139;DHT22;19501;50.948;5.316;2022-08-19T07:16:20;18.80;99.90
33139;DHT22;19501;50.948;5.316;2022-08-19T07:18:47;18.90;99.90
33139;DHT22;19501;50.948;5.316;2022-08-19T07:21:17;19.10;99.90
33139;DHT22;19501;50.948;5.316;2022-08-19T07:23:44;19.20;99.90
33139;DHT22;19501;50.948;5.316;2022-08-19T07:26:19;19.20;99.90
33139;DHT22;19501;50.948;5.316;2022-08-19T07:28:47;19.30;99.90
33139;DHT22;19501;50.948;5.316;2022-08-19T07:31:16;19.10;99.90
33139;DHT22;19501;50.948;5.316;2022-08-19T07:33:44;19.00;99.90
33139;DHT22;19501;50.948;5.316;2022-08-19T07:36:10;18.80;99.90
33139;DHT22;19501;50.948;5.316;2022-08-19T07:38:40;18.80;99.90
33139;DHT22;19501;50.948;5.316;2022-08-19T07:41:06;18.80;99.90
33139;DHT22;19501;50.948;5.316;2022-08-19T07:43:32;19.00;99.90
33139;DHT22;19501;50.948;5.316;2022-08-19T07:45:58;19.10;99.90
33139;DHT22;19501;50.948;5.316;2022-08-19T07:48:27;19.20;99.90
33139;DHT22;19501;50.948;5.316;2022-08-19T07:50:54;19.20;99.90
33139;DHT22;19501;50.948;5.316;2022-08-19T07:53:21;19.40;99.90
33139;DHT22;19501;50.948;5.316;2022-08-19T07:55:48;19.50;99.90
33139;DHT22;19501;50.948;5.316;2022-08-19T07:58:19;19.70;99.90
33139;DHT22;19501;50.948;5.316;2022-08-19T08:00:47;20.00;99.90
33139;DHT22;19501;50.948;5.316;2022-08-19T08:03:15;19.60;99.90
33139;DHT22;19501;50.948;5.316;2022-08-19T08:05:41;19.60;99.90
33139;DHT22;19501;50.948;5.316;2022-08-19T08:08:25;19.90;99.90
33139;DHT22;19501;50.948;5.316;2022-08-19T08:10:59;19.80;99.90
33139;DHT22;19501;50.948;5.316;2022-08-19T08:13:26;19.90;99.90
33139;DHT22;19501;50.948;5.316;2022-08-19T08:15:52;20.00;99.90
33139;DHT22;19501;50.948;5.316;2022-08-19T08:18:18;20.20;99.90
33139;DHT22;19501;50.948;5.316;2022-08-19T08:20:44;20.20;99.90
33139;DHT22;19501;50.948;5.316;2022-08-19T08:23:09;20.10;99.90
33139;DHT22;19501;50.948;5.316;2022-08-19T08:25:51;20.10;99.90
33139;DHT22;19501;50.948;5.316;2022-08-19T08:28:18;20.30;99.90
33139;DHT22;19501;50.948;5.316;2022-08-19T08:30:46;20.50;99.90
33139;DHT22;19501;50.948;5.316;2022-08-19T08:33:14;20.50;99.90
33139;DHT22;19501;50.948;5.316;2022-08-19T08:35:40;20.60;99.90
33139;DHT22;19501;50.948;5.316;2022-08-19T08:38:07;20.50;99.90
33139;DHT22;19501;50.948;5.316;2022-08-19T08:40:49;20.70;99.90
33139;DHT22;19501;50.948;5.316;2022-08-19T08:43:28;20.60;99.90
33139;DHT22;19501;50.948;5.316;2022-08-19T08:46:06;20.70;99.90
33139;DHT22;19501;50.948;5.316;2022-08-19T08:48:49;20.70;99.90
33139;DHT22;19501;50.948;5.316;2022-08-19T08:51:22;20.90;99.90
33139;DHT22;19501;50.948;5.316;2022-08-19T08:53:51;20.70;99.90
33139;DHT22;19501;50.948;5.316;2022-08-19T08:56:17;20.90;99.90
33139;DHT22;19501;50.948;5.316;2022-08-19T08:59:18;21.00;99.90
33139;DHT22;19501;50.948;5.316;2022-08-19T09:01:45;21.40;99.90
33139;DHT22;19501;50.948;5.316;2022-08-19T09:04:12;21.50;99.90
33139;DHT22;19501;50.948;5.316;2022-08-19T09:10:02;21.20;99.90
33139;DHT22;19501;50.948;5.316;2022-08-19T09:15:08;21.60;99.90
33139;DHT22;19501;50.948;5.316;2022-08-19T09:17:37;21.60;99.90
33139;DHT22;19501;50.948;5.316;2022-08-19T09:22:40;21.80;99.90
33139;DHT22;19501;50.948;5.316;2022-08-19T09:25:11;21.80;99.90
33139;DHT22;19501;50.948;5.316;2022-08-19T09:27:39;21.80;99.90
33139;DHT22;19501;50.948;5.316;2022-08-19T09:30:06;21.90;99.90
33139;DHT22;19501;50.948;5.316;2022-08-19T09:32:33;22.10;99.90
33139;DHT22;19501;50.948;5.316;2022-08-19T09:34:59;22.50;99.90
33139;DHT22;19501;50.948;5.316;2022-08-19T09:37:26;22.70;99.90
33139;DHT22;19501;50.948;5.316;2022-08-19T09:39:52;22.90;99.90
33139;DHT22;19501;50.948;5.316;2022-08-19T09:42:18;22.90;99.90
33139;DHT22;19501;50.948;5.316;2022-08-19T09:44:44;22.70;99.90
33139;DHT22;19501;50.948;5.316;2022-08-19T09:47:12;22.50;99.90
33139;DHT22;19501;50.948;5.316;2022-08-19T09:49:39;22.70;99.90
33139;DHT22;19501;50.948;5.316;2022-08-19T09:52:09;22.90;99.90
33139;DHT22;19501;50.948;5.316;2022-08-19T09:54:38;22.80;99.90
33139;DHT22;19501;50.948;5.316;2022-08-19T09:57:04;22.70;99.90
33139;DHT22;19501;50.948;5.316;2022-08-19T09:59:30;22.80;99.90
33139;DHT22;19501;50.948;5.316;2022-08-19T10:01:56;23.20;99.90
33139;DHT22;19501;50.948;5.316;2022-08-19T10:04:22;23.30;99.90
33139;DHT22;19501;50.948;5.316;2022-08-19T10:06:49;23.40;99.90
33139;DHT22;19501;50.948;5.316;2022-08-19T10:09:17;23.50;99.90
33139;DHT22;19501;50.948;5.316;2022-08-19T10:11:44;23.60;99.90
33139;DHT22;19501;50.948;5.316;2022-08-19T10:14:15;23.20;99.90
33139;DHT22;19501;50.948;5.316;2022-08-19T10:16:42;23.10;99.90
33139;DHT22;19501;50.948;5.316;2022-08-19T10:19:08;23.60;99.90
33139;DHT22;19501;50.948;5.316;2022-08-19T10:21:34;23.90;99.90
33139;DHT22;19501;50.948;5.316;2022-08-19T10:24:02;24.10;99.90
33139;DHT22;19501;50.948;5.316;2022-08-19T10:26:37;24.10;99.90
33139;DHT22;19501;50.948;5.316;2022-08-19T10:29:04;24.40;99.90
33139;DHT22;19501;50.948;5.316;2022-08-19T10:31:32;24.50;99.90
33139;DHT22;19501;50.948;5.316;2022-08-19T10:33:59;24.40;99.90
33139;DHT22;19501;50.948;5.316;2022-08-19T10:36:30;24.50;99.90
33139;DHT22;19501;50.948;5.316;2022-08-19T10:38:58;24.60;99.90
33139;DHT22;19501;50.948;5.316;2022-08-19T10:41:29;24.20;99.90
33139;DHT22;19501;50.948;5.316;2022-08-19T10:43:56;24.40;99.90
33139;DHT22;19501;50.948;5.316;2022-08-19T10:46:24;24.60;99.90
33139;DHT22;19501;50.948;5.316;2022-08-19T10:48:50;24.70;99.90
33139;DHT22;19501;50.948;5.316;2022-08-19T10:51:16;24.50;99.90
33139;DHT22;19501;50.948;5.316;2022-08-19T10:54:01;24.50;99.90
33139;DHT22;19501;50.948;5.316;2022-08-19T10:56:28;24.50;99.90
33139;DHT22;19501;50.948;5.316;2022-08-19T10:59:13;24.30;99.90
33139;DHT22;19501;50.948;5.316;2022-08-19T11:01:40;24.10;99.90
33139;DHT22;19501;50.948;5.316;2022-08-19T11:04:06;23.80;99.90
33139;DHT22;19501;50.948;5.316;2022-08-19T11:06:36;23.80;99.90
33139;DHT22;19501;50.948;5.316;2022-08-19T11:09:04;23.80;99.90
33139;DHT22;19501;50.948;5.316;2022-08-19T11:11:31;23.80;99.90
33139;DHT22;19501;50.948;5.316;2022-08-19T11:13:57;23.70;99.90
33139;DHT22;19501;50.948;5.316;2022-08-19T11:16:25;24.00;99.90
33139;DHT22;19501;50.948;5.316;2022-08-19T11:18:57;24.30;99.90
33139;DHT22;19501;50.948;5.316;2022-08-19T11:21:32;24.40;99.90
33139;DHT22;19501;50.948;5.316;2022-08-19T11:24:01;24.50;99.90
33139;DHT22;19501;50.948;5.316;2022-08-19T11:26:29;24.70;99.90
33139;DHT22;19501;50.948;5.316;2022-08-19T11:28:56;24.30;99.90
33139;DHT22;19501;50.948;5.316;2022-08-19T11:31:25;24.50;99.90
33139;DHT22;19501;50.948;5.316;2022-08-19T11:33:51;24.70;99.90
33139;DHT22;19501;50.948;5.316;2022-08-19T11:36:20;24.80;99.90
33139;DHT22;19501;50.948;5.316;2022-08-19T11:38:49;25.20;99.90
33139;DHT22;19501;50.948;5.316;2022-08-19T11:41:17;25.60;99.90
33139;DHT22;19501;50.948;5.316;2022-08-19T11:43:43;25.90;99.90
33139;DHT22;19501;50.948;5.316;2022-08-19T11:46:13;25.40;99.90
33139;DHT22;19501;50.948;5.316;2022-08-19T11:48:41;25.50;99.90
33139;DHT22;19501;50.948;5.316;2022-08-19T11:51:11;26.10;99.90
33139;DHT22;19501;50.948;5.316;2022-08-19T11:53:38;25.80;99.90
33139;DHT22;19501;50.948;5.316;2022-08-19T11:56:07;25.90;99.90
33139;DHT22;19501;50.948;5.316;2022-08-19T11:58:33;26.10;99.90
33139;DHT22;19501;50.948;5.316;2022-08-19T12:00:59;26.10;99.90
33139;DHT22;19501;50.948;5.316;2022-08-19T12:03:26;26.40;99.90
33139;DHT22;19501;50.948;5.316;2022-08-19T12:05:54;26.00;99.90
33139;DHT22;19501;50.948;5.316;2022-08-19T12:08:20;25.90;99.90
33139;DHT22;19501;50.948;5.316;2022-08-19T12:10:45;25.50;99.90
33139;DHT22;19501;50.948;5.316;2022-08-19T12:13:13;25.00;99.90
33139;DHT22;19501;50.948;5.316;2022-08-19T12:15:45;24.90;99.90
33139;DHT22;19501;50.948;5.316;2022-08-19T12:18:12;24.90;99.90
33139;DHT22;19501;50.948;5.316;2022-08-19T12:20:41;25.10;99.90
33139;DHT22;19501;50.948;5.316;2022-08-19T12:23:08;25.20;99.90
33139;DHT22;19501;50.948;5.316;2022-08-19T12:25:37;25.30;99.90
33139;DHT22;19501;50.948;5.316;2022-08-19T12:28:20;26.10;99.90
33139;DHT22;19501;50.948;5.316;2022-08-19T12:30:47;26.90;99.90
33139;DHT22;19501;50.948;5.316;2022-08-19T12:33:14;26.20;99.90
33139;DHT22;19501;50.948;5.316;2022-08-19T12:35:41;25.80;99.90
33139;DHT22;19501;50.948;5.316;2022-08-19T12:38:08;25.70;99.90
33139;DHT22;19501;50.948;5.316;2022-08-19T12:40:33;25.50;99.90
33139;DHT22;19501;50.948;5.316;2022-08-19T12:42:59;25.20;99.90
33139;DHT22;19501;50.948;5.316;2022-08-19T12:45:25;25.10;99.90
33139;DHT22;19501;50.948;5.316;2022-08-19T12:47:50;24.90;99.90
33139;DHT22;19501;50.948;5.316;2022-08-19T12:50:19;24.70;99.90
33139;DHT22;19501;50.948;5.316;2022-08-19T12:52:47;24.50;99.90
33139;DHT22;19501;50.948;5.316;2022-08-19T12:55:13;24.60;99.90
33139;DHT22;19501;50.948;5.316;2022-08-19T12:57:39;24.70;99.90
33139;DHT22;19501;50.948;5.316;2022-08-19T13:00:06;25.00;99.90
33139;DHT22;19501;50.948;5.316;2022-08-19T13:02:37;25.20;99.90
33139;DHT22;19501;50.948;5.316;2022-08-19T13:05:03;25.20;99.90
33139;DHT22;19501;50.948;5.316;2022-08-19T13:07:31;25.00;99.90
33139;DHT22;19501;50.948;5.316;2022-08-19T13:09:57;25.10;99.90
33139;DHT22;19501;50.948;5.316;2022-08-19T13:12:23;25.10;99.90
33139;DHT22;19501;50.948;5.316;2022-08-19T13:14:49;25.10;99.90
33139;DHT22;19501;50.948;5.316;2022-08-19T13:17:16;25.00;99.90
33139;DHT22;19501;50.948;5.316;2022-08-19T13:19:42;25.00;99.90
33139;DHT22;19501;50.948;5.316;2022-08-19T13:22:10;25.00;99.90
33139;DHT22;19501;50.948;5.316;2022-08-19T13:24:36;24.90;99.90
33139;DHT22;19501;50.948;5.316;2022-08-19T13:27:02;24.70;99.90
33139;DHT22;19501;50.948;5.316;2022-08-19T13:29:28;24.60;99.90
33139;DHT22;19501;50.948;5.316;2022-08-19T13:32:12;24.50;99.90
33139;DHT22;19501;50.948;5.316;2022-08-19T13:34:56;24.50;99.90
33139;DHT22;19501;50.948;5.316;2022-08-19T13:37:21;24.50;99.90
33139;DHT22;19501;50.948;5.316;2022-08-19T13:40:08;24.50;99.90
33139;DHT22;19501;50.948;5.316;2022-08-19T13:42:38;24.60;99.90
33139;DHT22;19501;50.948;5.316;2022-08-19T13:45:04;24.60;99.90
33139;DHT22;19501;50.948;5.316;2022-08-19T13:47:32;24.80;99.90
33139;DHT22;19501;50.948;5.316;2022-08-19T13:50:02;24.90;99.90
33139;DHT22;19501;50.948;5.316;2022-08-19T13:52:27;25.10;99.90
33139;DHT22;19501;50.948;5.316;2022-08-19T13:54:53;25.00;99.90
33139;DHT22;19501;50.948;5.316;2022-08-19T13:57:19;24.80;99.90
33139;DHT22;19501;50.948;5.316;2022-08-19T13:59:45;24.90;99.90
33139;DHT22;19501;50.948;5.316;2022-08-19T14:02:10;25.00;99.90
33139;DHT22;19501;50.948;5.316;2022-08-19T14:04:36;25.50;99.90
33139;DHT22;19501;50.948;5.316;2022-08-19T14:07:03;25.50;99.90
33139;DHT22;19501;50.948;5.316;2022-08-19T14:09:29;25.50;99.90
33139;DHT22;19501;50.948;5.316;2022-08-19T14:11:55;25.70;99.90
33139;DHT22;19501;50.948;5.316;2022-08-19T14:14:20;26.00;99.90
33139;DHT22;19501;50.948;5.316;2022-08-19T14:16:47;26.00;99.90
33139;DHT22;19501;50.948;5.316;2022-08-19T14:19:13;26.20;99.90
33139;DHT22;19501;50.948;5.316;2022-08-19T14:21:39;26.60;99.90
33139;DHT22;19501;50.948;5.316;2022-08-19T14:24:06;26.60;99.90
33139;DHT22;19501;50.948;5.316;2022-08-19T14:26:32;26.60;99.90
33139;DHT22;19501;50.948;5.316;2022-08-19T14:28:58;26.30;99.90
33139;DHT22;19501;50.948;5.316;2022-08-19T14:31:23;26.50;99.90
33139;DHT22;19501;50.948;5.316;2022-08-19T14:33:50;26.70;99.90
33139;DHT22;19501;50.948;5.316;2022-08-19T14:36:17;26.30;99.90
33139;DHT22;19501;50.948;5.316;2022-08-19T14:38:43;26.20;99.90
33139;DHT22;19501;50.948;5.316;2022-08-19T14:41:18;26.30;99.90
33139;DHT22;19501;50.948;5.316;2022-08-19T14:43:49;26.30;99.90
33139;DHT22;19501;50.948;5.316;2022-08-19T14:46:17;26.20;99.90
33139;DHT22;19501;50.948;5.316;2022-08-19T14:48:46;26.20;99.90
33139;DHT22;19501;50.948;5.316;2022-08-19T14:51:12;26.00;99.90
33139;DHT22;19501;50.948;5.316;2022-08-19T14:53:39;26.10;99.90
33139;DHT22;19501;50.948;5.316;2022-08-19T14:56:10;26.10;99.90
33139;DHT22;19501;50.948;5.316;2022-08-19T14:58:36;26.20;99.90
33139;DHT22;19501;50.948;5.316;2022-08-19T15:01:02;26.10;99.90
33139;DHT22;19501;50.948;5.316;2022-08-19T15:03:29;26.00;99.90
33139;DHT22;19501;50.948;5.316;2022-08-19T15:05:56;25.90;99.90
33139;DHT22;19501;50.948;5.316;2022-08-19T15:08:23;25.70;99.90
33139;DHT22;19501;50.948;5.316;2022-08-19T15:10:51;25.90;99.90
33139;DHT22;19501;50.948;5.316;2022-08-19T15:13:17;26.30;99.90
33139;DHT22;19501;50.948;5.316;2022-08-19T15:15:43;26.50;99.90
33139;DHT22;19501;50.948;5.316;2022-08-19T15:18:08;26.10;99.90
33139;DHT22;19501;50.948;5.316;2022-08-19T15:20:34;26.00;99.90
33139;DHT22;19501;50.948;5.316;2022-08-19T15:23:00;25.90;99.90
33139;DHT22;19501;50.948;5.316;2022-08-19T15:25:26;25.90;99.90
33139;DHT22;19501;50.948;5.316;2022-08-19T15:27:52;25.90;99.90
33139;DHT22;19501;50.948;5.316;2022-08-19T15:30:23;25.90;99.90
33139;DHT22;19501;50.948;5.316;2022-08-19T15:32:50;25.70;99.90
33139;DHT22;19501;50.948;5.316;2022-08-19T15:35:18;25.50;99.90
33139;DHT22;19501;50.948;5.316;2022-08-19T15:37:47;25.50;99.90
33139;DHT22;19501;50.948;5.316;2022-08-19T15:40:13;25.60;99.90
33139;DHT22;19501;50.948;5.316;2022-08-19T15:42:39;25.60;99.90
33139;DHT22;19501;50.948;5.316;2022-08-19T15:45:07;25.50;99.90
33139;DHT22;19501;50.948;5.316;2022-08-19T15:47:34;25.60;99.90
33139;DHT22;19501;50.948;5.316;2022-08-19T15:50:03;25.60;99.90